West Mystic, Connecticut
Current Conditions -  °F | °C
As of 5:56 AM on Wednesday 26 Nov 2014 (Local Time) from KGON Reporting Station
Light Rain Light Rain  
Wind Chill: 39°   Ceiling: 7000
Heat Index: 45°   Visibility: 8mi
Dew Point: 30°   Wind: 13mph
Humidity: 56%   Direction: 360°N
Pressure: 30.14"   Gusts: NA
Location:  41.35°N, 71.98°W
Report Text: KGON 261056Z AUTO 36011KT 8SM -RA BKN070 OVC080 07/M01 A3014 RMK AO2 RAB56 SLP205 P0000 T00721011
Loading
Personal Weather Stations






























Interactive Weather Map New forecast layout! Learn more

10-Day Weather Forecast

Advertisements
Track Severe Weather on mobile